createdAt,value
2023-01-08T00:01:09.028Z,99643.50
2023-01-08T00:03:36.393Z,99638.19
2023-01-08T00:06:09.114Z,99626.78
2023-01-08T00:08:35.765Z,99631.16
2023-01-08T00:11:02.265Z,99632.94
2023-01-08T00:13:29.368Z,99631.16
2023-01-08T00:15:56.025Z,99627.63
2023-01-08T00:18:24.185Z,99627.63
2023-01-08T00:20:50.646Z,99630.28
2023-01-08T00:23:19.453Z,99619.69
2023-01-08T00:25:46.537Z,99620.59
2023-01-08T00:28:15.014Z,99616.19
2023-01-08T00:30:42.221Z,99615.31
2023-01-08T00:33:11.993Z,99617.94
2023-01-08T00:35:39.303Z,99623.22
2023-01-08T00:38:06.911Z,99616.19
2023-01-08T00:40:34.824Z,99619.69
2023-01-08T00:43:02.078Z,99621.47
2023-01-08T00:45:28.605Z,99617.09
2023-01-08T00:47:55.170Z,99610.03
2023-01-08T00:50:21.643Z,99600.34
2023-01-08T00:52:48.102Z,99599.44
2023-01-08T00:55:14.822Z,99590.69
2023-01-08T00:57:41.293Z,99576.59
2023-01-08T01:00:11.303Z,99579.25
2023-01-08T01:02:38.609Z,99583.63
2023-01-08T01:05:05.628Z,99594.19
2023-01-08T01:07:33.717Z,99573.03
2023-01-08T01:10:00.743Z,99578.34
2023-01-08T01:12:27.335Z,99581.84
2023-01-08T01:14:54.144Z,99585.41
2023-01-08T01:17:20.825Z,99588.91
2023-01-08T01:19:47.300Z,99597.72
2023-01-08T01:22:13.853Z,99595.94
2023-01-08T01:24:40.417Z,99610.03
2023-01-08T01:27:07.061Z,99592.41
2023-01-08T01:29:33.618Z,99581.84
2023-01-08T01:32:00.111Z,99576.56
2023-01-08T01:34:26.676Z,99575.66
2023-01-08T01:36:53.157Z,99568.63
2023-01-08T01:39:20.090Z,99570.38
2023-01-08T01:41:47.438Z,99567.75
2023-01-08T01:44:52.628Z,99567.75
2023-01-08T01:47:30.623Z,99550.16
2023-01-08T01:50:12.822Z,99550.16
2023-01-08T01:53:00.240Z,99545.78
2023-01-08T01:55:27.888Z,99543.13
2023-01-08T01:58:11.301Z,99546.66
2023-01-08T02:00:38.470Z,99549.28
2023-01-08T02:03:06.943Z,99551.03
2023-01-08T02:06:15.792Z,99551.91
2023-01-08T02:09:08.478Z,99555.44
2023-01-08T02:11:37.641Z,99554.53
2023-01-08T02:14:16.340Z,99550.19
2023-01-08T02:16:48.067Z,99555.47
2023-01-08T02:19:41.200Z,99551.94
2023-01-08T02:22:38.711Z,99534.34
2023-01-08T02:25:27.467Z,99536.94
2023-01-08T02:27:57.118Z,99548.38
2023-01-08T02:30:25.287Z,99536.94
2023-01-08T02:32:51.813Z,99539.59
2023-01-08T02:35:18.431Z,99542.22
2023-01-08T02:37:45.565Z,99543.13
2023-01-08T02:40:35.785Z,99552.81
2023-01-08T02:43:17.960Z,99549.28
2023-01-08T02:45:50.592Z,99545.75
2023-01-08T02:48:32.029Z,99541.34
2023-01-08T02:51:10.948Z,99543.13
2023-01-08T02:53:45.606Z,99535.16
2023-01-08T02:56:19.984Z,99534.28
2023-01-08T02:58:49.184Z,99528.97
2023-01-08T03:01:17.840Z,99524.53
2023-01-08T03:03:49.306Z,99525.44
2023-01-08T03:06:19.078Z,99523.66
2023-01-08T03:08:48.765Z,99534.22
2023-01-08T03:11:18.708Z,99536.00
2023-01-08T03:13:54.253Z,99537.72
2023-01-08T03:16:35.529Z,99538.59
2023-01-08T03:19:25.612Z,99548.28
2023-01-08T03:21:52.501Z,99539.47
2023-01-08T03:24:23.474Z,99536.81
2023-01-08T03:26:53.802Z,99536.81
2023-01-08T03:29:24.417Z,99539.44
2023-01-08T03:31:55.003Z,99538.59
2023-01-08T03:34:24.648Z,99528.00
2023-01-08T03:36:55.527Z,99528.84
2023-01-08T03:39:31.239Z,99534.13
2023-01-08T03:42:02.528Z,99535.00
2023-01-08T03:44:29.135Z,99542.09
2023-01-08T03:46:57.794Z,99542.97
2023-01-08T03:49:28.499Z,99545.59
2023-01-08T03:51:55.222Z,99533.22
2023-01-08T03:54:25.422Z,99530.59
2023-01-08T03:56:51.958Z,99525.31
2023-01-08T03:59:18.913Z,99518.25
2023-01-08T04:01:45.871Z,99522.69
2023-01-08T04:04:12.596Z,99520.03
2023-01-08T04:06:39.092Z,99505.91
2023-01-08T04:09:05.661Z,99512.06
2023-01-08T04:11:32.405Z,99516.47
2023-01-08T04:13:59.275Z,99508.53
2023-01-08T04:16:25.846Z,99506.78
2023-01-08T04:18:52.352Z,99505.03
2023-01-08T04:21:18.878Z,99504.16
2023-01-08T04:23:45.704Z,99495.34
2023-01-08T04:26:12.213Z,99500.63
2023-01-08T04:28:38.725Z,99498.03
2023-01-08T04:31:09.962Z,99490.09
2023-01-08T04:33:37.069Z,99483.09
2023-01-08T04:36:05.244Z,99476.06
2023-01-08T04:38:32.191Z,99478.72
2023-01-08T04:40:59.951Z,99470.75
2023-01-08T04:43:27.659Z,99469.91
2023-01-08T04:45:58.884Z,99461.97
2023-01-08T04:48:25.855Z,99451.41
2023-01-08T04:50:52.506Z,99455.84
2023-01-08T04:53:19.034Z,99459.34
2023-01-08T04:55:45.573Z,99451.44
2023-01-08T04:58:12.361Z,99448.78
2023-01-08T05:00:40.096Z,99442.63
2023-01-08T05:03:06.822Z,99443.53
2023-01-08T05:05:34.592Z,99447.03
2023-01-08T05:08:01.077Z,99446.16
2023-01-08T05:10:27.776Z,99441.72
2023-01-08T05:12:58.830Z,99434.69
2023-01-08T05:15:25.943Z,99432.94
2023-01-08T05:18:05.824Z,99432.03
2023-01-08T05:20:33.310Z,99432.94
2023-01-08T05:22:59.788Z,99432.03
2023-01-08T05:25:26.242Z,99429.41
2023-01-08T05:27:52.810Z,99426.75
2023-01-08T05:30:19.789Z,99429.38
2023-01-08T05:32:46.287Z,99429.38
2023-01-08T05:35:12.830Z,99433.81
2023-01-08T05:37:39.390Z,99430.25
2023-01-08T05:40:06.568Z,99441.69
2023-01-08T05:42:36.550Z,99439.06
2023-01-08T05:45:05.027Z,99437.31
2023-01-08T05:47:32.909Z,99426.72
2023-01-08T05:49:59.501Z,99435.53
2023-01-08T05:52:26.649Z,99423.19
2023-01-08T05:54:53.194Z,99427.59
2023-01-08T05:57:19.741Z,99425.84
2023-01-08T05:59:46.266Z,99428.47
2023-01-08T06:02:12.834Z,99427.56
2023-01-08T06:04:39.801Z,99418.78
2023-01-08T06:07:06.367Z,99428.44
2023-01-08T06:09:32.866Z,99428.44
2023-01-08T06:11:59.420Z,99425.78
2023-01-08T06:14:25.905Z,99419.63
2023-01-08T06:16:52.487Z,99418.75
2023-01-08T06:19:19.093Z,99420.50
2023-01-08T06:21:45.708Z,99421.41
2023-01-08T06:24:12.177Z,99417.88
2023-01-08T06:26:38.991Z,99416.97
2023-01-08T06:29:05.537Z,99419.63
2023-01-08T06:31:32.504Z,99425.81
2023-01-08T06:33:59.155Z,99421.41
2023-01-08T06:36:25.704Z,99422.28
2023-01-08T06:38:52.325Z,99418.78
2023-01-08T06:41:18.823Z,99407.31
2023-01-08T06:43:45.408Z,99415.25
2023-01-08T06:46:11.968Z,99415.25
2023-01-08T06:48:38.494Z,99414.38
2023-01-08T06:51:05.463Z,99420.53
2023-01-08T06:53:32.613Z,99416.13
2023-01-08T06:55:59.260Z,99417.88
2023-01-08T06:58:27.411Z,99412.63
2023-01-08T07:00:54.020Z,99418.81
2023-01-08T07:03:20.783Z,99415.28
2023-01-08T07:05:47.380Z,99419.66
2023-01-08T07:08:15.395Z,99417.91
2023-01-08T07:10:43.277Z,99432.88
2023-01-08T07:13:10.375Z,99425.81
2023-01-08T07:15:37.386Z,99428.47
2023-01-08T07:18:06.151Z,99426.69
2023-01-08T07:20:34.404Z,99423.16
2023-01-08T07:23:06.099Z,99426.69
2023-01-08T07:25:33.372Z,99419.63
2023-01-08T07:28:00.398Z,99424.03
2023-01-08T07:30:30.150Z,99426.66
2023-01-08T07:33:01.305Z,99430.19
2023-01-08T07:35:28.212Z,99424.03
2023-01-08T07:37:55.525Z,99433.69
2023-01-08T07:40:22.492Z,99435.47
2023-01-08T07:42:49.084Z,99442.50
2023-01-08T07:45:15.604Z,99438.94
2023-01-08T07:47:42.090Z,99436.31
2023-01-08T07:50:09.200Z,99438.09
2023-01-08T07:52:35.627Z,99442.50
2023-01-08T07:55:02.160Z,99435.44
2023-01-08T07:57:30.111Z,99441.59
2023-01-08T07:59:56.819Z,99435.47
2023-01-08T08:02:23.431Z,99446.91
2023-01-08T08:04:50.225Z,99440.75
2023-01-08T08:07:16.731Z,99436.31
2023-01-08T08:09:43.327Z,99440.72
2023-01-08T08:12:09.830Z,99433.72
2023-01-08T08:14:36.368Z,99433.72
2023-01-08T08:17:02.991Z,99436.38
2023-01-08T08:19:29.712Z,99432.84
2023-01-08T08:21:56.279Z,99433.69
2023-01-08T08:24:22.745Z,99437.22
2023-01-08T08:26:50.255Z,99441.66
2023-01-08T08:29:17.087Z,99432.84
2023-01-08T08:31:43.850Z,99433.72
2023-01-08T08:34:10.373Z,99433.72
2023-01-08T08:36:36.885Z,99442.50
2023-01-08T08:39:04.449Z,99432.81
2023-01-08T08:41:30.963Z,99430.16
2023-01-08T08:43:57.580Z,99430.16
2023-01-08T08:46:25.505Z,99433.69
2023-01-08T08:48:52.317Z,99424.84
2023-01-08T08:51:19.101Z,99428.38
2023-01-08T08:53:45.560Z,99427.53
2023-01-08T08:56:12.131Z,99419.56
2023-01-08T08:58:39.115Z,99426.59
2023-01-08T09:01:05.991Z,99430.09
2023-01-08T09:03:32.558Z,99421.25
2023-01-08T09:05:59.967Z,99425.66
2023-01-08T09:08:26.900Z,99423.88
2023-01-08T09:10:53.395Z,99417.69
2023-01-08T09:13:20.146Z,99420.34
2023-01-08T09:15:46.743Z,99413.31
2023-01-08T09:18:15.897Z,99408.00
2023-01-08T09:20:43.139Z,99400.03
2023-01-08T09:23:10.151Z,99408.88
2023-01-08T09:25:38.368Z,99400.91
2023-01-08T09:28:07.840Z,99394.75
2023-01-08T09:30:35.230Z,99405.28
2023-01-08T09:33:03.722Z,99394.66
2023-01-08T09:35:34.536Z,99410.50
2023-01-08T09:38:01.647Z,99404.28
2023-01-08T09:40:39.264Z,99406.88
2023-01-08T09:43:06.379Z,99410.34
2023-01-08T09:45:38.128Z,99409.41
2023-01-08T09:48:12.157Z,99403.22
2023-01-08T09:50:39.067Z,99404.09
2023-01-08T09:53:05.703Z,99399.69
2023-01-08T09:55:34.363Z,99397.03
2023-01-08T09:58:03.298Z,99400.53
2023-01-08T10:00:33.808Z,99398.75
2023-01-08T10:03:00.763Z,99404.91
2023-01-08T10:05:28.531Z,99396.06
2023-01-08T10:07:55.279Z,99395.19
2023-01-08T10:10:29.320Z,99396.03
2023-01-08T10:12:56.453Z,99392.50
2023-01-08T10:15:23.578Z,99386.31
2023-01-08T10:17:59.277Z,99388.94
2023-01-08T10:20:26.583Z,99373.94
2023-01-08T10:22:54.539Z,99375.66
2023-01-08T10:25:25.814Z,99362.34
2023-01-08T10:27:57.132Z,99352.53
2023-01-08T10:30:40.177Z,99356.03
2023-01-08T10:33:14.851Z,99366.50
2023-01-08T10:35:42.891Z,99370.66
2023-01-08T10:38:26.732Z,99360.78
2023-01-08T10:40:53.447Z,99363.50
2023-01-08T10:43:54.163Z,99367.16
2023-01-08T10:46:31.785Z,99373.41
2023-01-08T10:49:01.871Z,99374.34
2023-01-08T10:51:30.920Z,99372.56
2023-01-08T10:54:13.127Z,99365.53
2023-01-08T10:56:43.029Z,99368.19
2023-01-08T10:59:23.769Z,99372.59
2023-01-08T11:01:53.159Z,99358.53
2023-01-08T11:04:32.719Z,99341.78
2023-01-08T11:07:02.472Z,99351.50
2023-01-08T11:09:33.805Z,99349.84
2023-01-08T11:12:01.137Z,99355.19
2023-01-08T11:14:38.205Z,99343.75
2023-01-08T11:17:12.553Z,99342.00
2023-01-08T11:19:39.962Z,99333.16
2023-01-08T11:22:19.568Z,99330.50
2023-01-08T11:24:47.689Z,99323.44
2023-01-08T11:27:26.887Z,99320.81
2023-01-08T11:30:12.277Z,99319.88
2023-01-08T11:32:46.511Z,99312.75
2023-01-08T11:35:28.630Z,99311.00
2023-01-08T11:38:02.839Z,99296.88
2023-01-08T11:40:50.377Z,99295.16
2023-01-08T11:44:00.152Z,99283.63
2023-01-08T11:47:04.974Z,99280.00
2023-01-08T11:49:51.259Z,99267.59
2023-01-08T11:52:33.296Z,99276.44
2023-01-08T11:55:20.253Z,99261.44
2023-01-08T11:58:02.040Z,99240.25
2023-01-08T12:00:57.293Z,99245.56
2023-01-08T12:03:36.685Z,99240.28
2023-01-08T12:06:21.773Z,99254.34
2023-01-08T12:09:10.547Z,99247.25
2023-01-08T12:11:45.478Z,99249.91
2023-01-08T12:14:20.339Z,99249.03
2023-01-08T12:16:50.365Z,99249.91
2023-01-08T12:19:20.637Z,99252.59
2023-01-08T12:22:10.186Z,99245.56
2023-01-08T12:25:01.413Z,99252.59
2023-01-08T12:28:00.412Z,99250.84
2023-01-08T12:30:48.489Z,99250.88
2023-01-08T12:33:36.925Z,99238.59
2023-01-08T12:36:10.629Z,99240.41
2023-01-08T12:38:44.856Z,99229.00
2023-01-08T12:41:13.760Z,99223.69
2023-01-08T12:44:04.011Z,99216.66
2023-01-08T12:46:36.300Z,99214.00
2023-01-08T12:49:06.413Z,99208.66
2023-01-08T12:52:02.796Z,99199.88
2023-01-08T12:54:38.266Z,99202.50
2023-01-08T12:57:25.264Z,99192.84
2023-01-08T13:00:04.037Z,99199.94
2023-01-08T13:02:34.095Z,99185.84
2023-01-08T13:05:28.808Z,99203.53
2023-01-08T13:08:02.597Z,99192.97
2023-01-08T13:10:41.116Z,99196.53
2023-01-08T13:13:23.204Z,99191.25
2023-01-08T13:15:50.141Z,99196.59
2023-01-08T13:18:20.020Z,99191.34
2023-01-08T13:20:57.560Z,99181.66
2023-01-08T13:23:27.329Z,99169.28
2023-01-08T13:25:57.357Z,99166.63
2023-01-08T13:28:44.868Z,99168.34
2023-01-08T13:31:20.577Z,99165.63
2023-01-08T13:33:49.121Z,99168.19
2023-01-08T13:36:27.404Z,99165.50
2023-01-08T13:39:03.085Z,99155.78
2023-01-08T13:41:42.862Z,99160.97
2023-01-08T13:44:28.948Z,99164.44
2023-01-08T13:47:02.130Z,99166.97
2023-01-08T13:49:32.530Z,99169.56
2023-01-08T13:51:59.304Z,99170.38
2023-01-08T13:54:40.372Z,99164.09
2023-01-08T13:57:19.997Z,99153.50
2023-01-08T13:59:54.199Z,99146.44
2023-01-08T14:02:42.590Z,99146.47
2023-01-08T14:05:22.256Z,99152.66
2023-01-08T14:07:48.944Z,99152.59
2023-01-08T14:10:17.039Z,99150.72
2023-01-08T14:12:44.124Z,99149.81
2023-01-08T14:15:20.014Z,99151.78
2023-01-08T14:17:46.962Z,99153.78
2023-01-08T14:20:19.793Z,99151.31
2023-01-08T14:22:46.403Z,99155.03
2023-01-08T14:25:16.954Z,99164.91
2023-01-08T14:27:54.058Z,99171.25
2023-01-08T14:30:20.968Z,99167.84
2023-01-08T14:32:47.451Z,99168.75
2023-01-08T14:35:20.931Z,99169.69
2023-01-08T14:37:47.563Z,99163.59
2023-01-08T14:40:27.456Z,99168.13
2023-01-08T14:42:54.635Z,99169.97
2023-01-08T14:45:28.252Z,99169.16
2023-01-08T14:48:15.023Z,99158.56
2023-01-08T14:50:55.833Z,99153.34
2023-01-08T14:53:28.618Z,99166.63
2023-01-08T14:55:57.484Z,99160.50
2023-01-08T14:58:29.944Z,99159.69
2023-01-08T15:01:00.372Z,99173.84
2023-01-08T15:03:31.928Z,99163.38
2023-01-08T15:05:58.725Z,99165.13
2023-01-08T15:08:32.249Z,99160.72
2023-01-08T15:11:19.700Z,99157.13
2023-01-08T15:13:47.737Z,99150.03
2023-01-08T15:16:24.666Z,99147.34
2023-01-08T15:19:01.565Z,99141.94
2023-01-08T15:21:28.225Z,99133.13
2023-01-08T15:23:56.963Z,99123.44
2023-01-08T15:26:24.694Z,99125.25
2023-01-08T15:28:55.056Z,99124.38
2023-01-08T15:31:29.317Z,99107.59
2023-01-08T15:33:57.120Z,99114.59
2023-01-08T15:36:23.763Z,99112.81
2023-01-08T15:38:50.608Z,99116.28
2023-01-08T15:41:39.531Z,99112.75
2023-01-08T15:44:06.926Z,99111.84
2023-01-08T15:46:33.459Z,99107.44
2023-01-08T15:48:59.927Z,99107.50
2023-01-08T15:51:29.818Z,99111.97
2023-01-08T15:53:56.272Z,99115.53
2023-01-08T15:56:22.812Z,99122.66
2023-01-08T15:58:49.338Z,99111.31
2023-01-08T16:01:16.007Z,99121.13
2023-01-08T16:03:42.737Z,99109.81
2023-01-08T16:06:09.792Z,99105.47
2023-01-08T16:08:36.729Z,99113.44
2023-01-08T16:11:03.169Z,99105.50
2023-01-08T16:13:29.643Z,99100.22
2023-01-08T16:15:56.214Z,99108.19
2023-01-08T16:18:22.663Z,99105.59
2023-01-08T16:20:49.176Z,99112.66
2023-01-08T16:23:16.400Z,99108.22
2023-01-08T16:25:42.893Z,99105.56
2023-01-08T16:28:09.834Z,99108.22
2023-01-08T16:30:36.575Z,99100.31
2023-01-08T16:33:03.211Z,99090.66
2023-01-08T16:35:29.745Z,99087.16
2023-01-08T16:37:56.541Z,99087.25
2023-01-08T16:40:22.960Z,99089.03
2023-01-08T16:42:49.478Z,99093.47
2023-01-08T16:45:16.102Z,99082.03
2023-01-08T16:47:42.882Z,99093.44
2023-01-08T16:50:10.986Z,99081.97
2023-01-08T16:52:38.860Z,99081.03
2023-01-08T16:55:06.805Z,99086.31
2023-01-08T16:57:33.318Z,99086.38
2023-01-08T17:00:00.062Z,99082.94
2023-01-08T17:02:27.333Z,99083.00
2023-01-08T17:04:54.070Z,99074.25
2023-01-08T17:07:20.602Z,99079.53
2023-01-08T17:09:47.222Z,99074.25
2023-01-08T17:12:22.523Z,99075.09
2023-01-08T17:14:50.790Z,99079.47
2023-01-08T17:17:17.965Z,99067.13
2023-01-08T17:19:44.478Z,99072.41
2023-01-08T17:22:11.009Z,99066.25
2023-01-08T17:24:37.664Z,99060.09
2023-01-08T17:27:04.297Z,99062.75
2023-01-08T17:29:31.180Z,99065.38
2023-01-08T17:31:58.095Z,99075.97
2023-01-08T17:34:24.956Z,99065.41
2023-01-08T17:36:51.555Z,99049.63
2023-01-08T17:39:18.140Z,99056.69
2023-01-08T17:42:03.303Z,99050.59
2023-01-08T17:44:31.073Z,99047.13
2023-01-08T17:46:57.697Z,99051.53
2023-01-08T17:49:24.375Z,99048.06
2023-01-08T17:51:53.294Z,99041.06
2023-01-08T17:54:19.779Z,99039.31
2023-01-08T17:56:48.801Z,99036.69
2023-01-08T17:59:17.344Z,99041.09
2023-01-08T18:01:45.488Z,99031.47
2023-01-08T18:04:14.429Z,99040.22
2023-01-08T18:06:42.199Z,99042.00
2023-01-08T18:09:10.221Z,99045.50
2023-01-08T18:11:37.134Z,99034.91
2023-01-08T18:14:04.215Z,99032.25
2023-01-08T18:16:32.413Z,99045.44
2023-01-08T18:19:00.202Z,99042.75
2023-01-08T18:21:27.897Z,99038.28
2023-01-08T18:23:54.899Z,99045.28
2023-01-08T18:26:22.330Z,99033.78
2023-01-08T18:28:51.063Z,99044.28
2023-01-08T18:31:17.832Z,99036.34
2023-01-08T18:33:44.444Z,99029.28
2023-01-08T18:36:12.597Z,99038.94
2023-01-08T18:38:41.339Z,99035.47
2023-01-08T18:41:09.513Z,99041.66
2023-01-08T18:43:36.877Z,99039.03
2023-01-08T18:46:06.078Z,99040.78
2023-01-08T18:48:33.987Z,99039.94
2023-01-08T18:51:07.600Z,99038.16
2023-01-08T18:53:34.251Z,99031.13
2023-01-08T18:56:01.580Z,99031.97
2023-01-08T18:58:28.822Z,99029.31
2023-01-08T19:00:55.640Z,99028.47
2023-01-08T19:03:22.608Z,99033.78
2023-01-08T19:05:49.744Z,99025.94
2023-01-08T19:08:16.495Z,99027.78
2023-01-08T19:10:43.001Z,99023.44
2023-01-08T19:13:09.519Z,99027.88
2023-01-08T19:15:36.170Z,99021.75
2023-01-08T19:18:05.043Z,99024.41
2023-01-08T19:20:31.698Z,99020.88
2023-01-08T19:22:58.250Z,99016.41
2023-01-08T19:25:24.888Z,99004.97
2023-01-08T19:27:51.796Z,98997.84
2023-01-08T19:30:18.502Z,99000.44
2023-01-08T19:32:46.503Z,99002.16
2023-01-08T19:35:13.108Z,98997.75
2023-01-08T19:37:39.964Z,98996.84
2023-01-08T19:40:07.286Z,98992.44
2023-01-08T19:42:53.280Z,98988.91
2023-01-08T19:45:19.791Z,98988.84
2023-01-08T19:47:46.322Z,98986.22
2023-01-08T19:50:12.970Z,98993.22
2023-01-08T19:52:39.595Z,98979.13
2023-01-08T19:55:06.330Z,98971.16
2023-01-08T19:57:33.059Z,98979.94
2023-01-08T20:00:00.142Z,98974.66
2023-01-08T20:02:27.113Z,98974.66
2023-01-08T20:04:53.698Z,98975.50
2023-01-08T20:07:20.658Z,98970.22
2023-01-08T20:09:47.120Z,98971.09
2023-01-08T20:12:14.753Z,98963.16
2023-01-08T20:14:41.400Z,98964.94
2023-01-08T20:17:08.231Z,98957.09
2023-01-08T20:19:35.018Z,98953.63
2023-01-08T20:22:01.665Z,98954.59
2023-01-08T20:24:29.789Z,98953.78
2023-01-08T20:26:56.288Z,98948.59
2023-01-08T20:29:23.108Z,98950.44
2023-01-08T20:31:56.851Z,98952.22
2023-01-08T20:34:24.420Z,98944.41
2023-01-08T20:36:51.093Z,98945.34
2023-01-08T20:39:18.462Z,98942.75
2023-01-08T20:41:55.256Z,98947.19
2023-01-08T20:44:28.029Z,98941.06
2023-01-08T20:46:54.806Z,98937.56
2023-01-08T20:49:21.583Z,98936.72
2023-01-08T20:51:58.025Z,98938.50
2023-01-08T20:54:26.220Z,98939.41
2023-01-08T20:56:55.173Z,98935.03
2023-01-08T20:59:24.213Z,98923.66
2023-01-08T21:01:51.064Z,98920.16
2023-01-08T21:04:18.339Z,98914.03
2023-01-08T21:06:44.924Z,98914.94
2023-01-08T21:09:11.593Z,98909.69
2023-01-08T21:11:40.178Z,98918.47
2023-01-08T21:14:08.235Z,98909.69
2023-01-08T21:16:36.483Z,98912.31
2023-01-08T21:19:03.835Z,98900.06
2023-01-08T21:21:33.666Z,98907.94
2023-01-08T21:24:04.252Z,98907.09
2023-01-08T21:26:33.280Z,98901.84
2023-01-08T21:29:02.894Z,98894.84
2023-01-08T21:31:29.761Z,98895.72
2023-01-08T21:33:58.396Z,98885.22
2023-01-08T21:36:27.240Z,98894.88
2023-01-08T21:38:55.668Z,98882.59
2023-01-08T21:41:43.236Z,98877.34
2023-01-08T21:44:33.008Z,98874.72
2023-01-08T21:47:00.626Z,98874.75
2023-01-08T21:49:27.931Z,98877.38
2023-01-08T21:52:13.492Z,98877.38
2023-01-08T21:54:40.340Z,98870.38
2023-01-08T21:57:10.525Z,98870.38
2023-01-08T21:59:37.672Z,98862.50
2023-01-08T22:02:06.119Z,98856.41
2023-01-08T22:04:33.621Z,98852.00
2023-01-08T22:07:00.550Z,98850.25
2023-01-08T22:09:27.237Z,98841.50
2023-01-08T22:11:55.991Z,98839.75
2023-01-08T22:14:23.342Z,98833.63
2023-01-08T22:16:50.484Z,98828.38
2023-01-08T22:19:17.121Z,98831.88
2023-01-08T22:21:43.902Z,98835.41
2023-01-08T22:24:10.617Z,98835.41
2023-01-08T22:26:37.562Z,98836.28
2023-01-08T22:29:05.914Z,98838.03
2023-01-08T22:31:33.007Z,98836.31
2023-01-08T22:33:59.962Z,98824.06
2023-01-08T22:36:26.484Z,98810.88
2023-01-08T22:38:53.129Z,98813.53
2023-01-08T22:41:24.521Z,98805.63
2023-01-08T22:43:56.647Z,98803.00
2023-01-08T22:46:24.890Z,98798.59
2023-01-08T22:48:51.650Z,98787.19
2023-01-08T22:51:20.860Z,98788.06
2023-01-08T22:53:47.603Z,98788.06
2023-01-08T22:56:14.488Z,98780.19
2023-01-08T22:58:48.256Z,98782.81
2023-01-08T23:01:17.471Z,98774.09
2023-01-08T23:03:44.835Z,98773.22
2023-01-08T23:06:16.357Z,98774.09
2023-01-08T23:08:44.252Z,98761.84
2023-01-08T23:11:14.013Z,98758.38
2023-01-08T23:13:41.284Z,98757.50
2023-01-08T23:16:09.723Z,98756.63
2023-01-08T23:18:37.328Z,98749.63
2023-01-08T23:21:06.605Z,98752.22
2023-01-08T23:23:33.228Z,98752.25
2023-01-08T23:26:32.091Z,98756.63
2023-01-08T23:28:59.223Z,98755.78
2023-01-08T23:31:29.139Z,98751.38
2023-01-08T23:33:56.552Z,98756.66
2023-01-08T23:36:23.733Z,98753.16
2023-01-08T23:38:52.997Z,98748.78
2023-01-08T23:41:21.341Z,98733.91
2023-01-08T23:43:49.233Z,98716.38
2023-01-08T23:46:16.624Z,98718.13
2023-01-08T23:48:43.275Z,98714.63
2023-01-08T23:51:09.868Z,98709.41
2023-01-08T23:53:36.421Z,98712.88
2023-01-08T23:56:06.069Z,98711.13
2023-01-08T23:58:32.575Z,98711.13
